createdAt,value
2022-11-09T00:00:00.000Z,7.05
2022-11-09T00:05:00.000Z,7.09
2022-11-09T00:10:00.000Z,7.08
2022-11-09T00:15:00.000Z,7.05
2022-11-09T00:20:00.000Z,7.09
2022-11-09T00:25:00.000Z,7.12
2022-11-09T00:30:00.000Z,7.16
2022-11-09T00:35:00.000Z,7.20
2022-11-09T00:40:00.000Z,7.25
2022-11-09T00:45:00.000Z,7.31
2022-11-09T00:50:00.000Z,7.31
2022-11-09T00:55:00.000Z,7.34
2022-11-09T01:00:01.000Z,7.34
2022-11-09T01:05:00.000Z,7.39
2022-11-09T01:10:00.000Z,7.44
2022-11-09T01:15:00.000Z,7.44
2022-11-09T01:20:00.000Z,7.52
2022-11-09T01:25:00.000Z,7.56
2022-11-09T01:30:00.000Z,7.62
2022-11-09T01:35:00.000Z,7.60
2022-11-09T01:40:00.000Z,7.65
2022-11-09T01:45:00.000Z,7.69
2022-11-09T01:50:00.000Z,7.70
2022-11-09T01:55:00.000Z,7.71
2022-11-09T02:00:00.000Z,7.72
2022-11-09T02:05:00.000Z,7.76
2022-11-09T02:10:00.000Z,7.78
2022-11-09T02:15:00.000Z,7.75
2022-11-09T02:20:00.000Z,7.78
2022-11-09T02:25:00.000Z,7.76
2022-11-09T02:30:00.000Z,7.76
2022-11-09T02:35:00.000Z,7.78
2022-11-09T02:40:00.000Z,7.79
2022-11-09T02:45:00.000Z,7.81
2022-11-09T02:50:00.000Z,7.83
2022-11-09T02:55:00.000Z,7.88
2022-11-09T03:00:01.000Z,7.92
2022-11-09T03:05:00.000Z,7.98
2022-11-09T03:10:01.000Z,8.04
2022-11-09T03:15:00.000Z,8.06
2022-11-09T03:20:00.000Z,8.06
2022-11-09T03:25:00.000Z,8.09
2022-11-09T03:30:00.000Z,8.11
2022-11-09T03:35:00.000Z,8.08
2022-11-09T03:40:00.000Z,8.11
2022-11-09T03:45:01.000Z,8.14
2022-11-09T03:50:00.000Z,8.19
2022-11-09T03:55:00.000Z,8.19
2022-11-09T04:00:00.000Z,8.20
2022-11-09T04:05:00.000Z,8.22
2022-11-09T04:10:00.000Z,8.24
2022-11-09T04:15:00.000Z,8.26
2022-11-09T04:20:00.000Z,8.24
2022-11-09T04:25:00.000Z,8.32
2022-11-09T04:30:00.000Z,8.32
2022-11-09T04:35:00.000Z,8.30
2022-11-09T04:40:01.000Z,8.28
2022-11-09T04:45:00.000Z,8.26
2022-11-09T04:50:00.000Z,8.34
2022-11-09T04:55:00.000Z,8.35
2022-11-09T05:00:01.000Z,8.37
2022-11-09T05:05:00.000Z,8.44
2022-11-09T05:10:01.000Z,8.37
2022-11-09T05:15:00.000Z,8.38
2022-11-09T05:20:01.000Z,8.41
2022-11-09T05:25:01.000Z,8.39
2022-11-09T05:30:00.000Z,8.45
2022-11-09T05:35:00.000Z,8.52
2022-11-09T05:40:00.000Z,8.60
2022-11-09T05:45:00.000Z,8.61
2022-11-09T05:50:00.000Z,8.65
2022-11-09T05:55:00.000Z,8.65
2022-11-09T06:00:00.000Z,8.67
2022-11-09T06:05:00.000Z,8.70
2022-11-09T06:10:00.000Z,8.70
2022-11-09T06:15:00.000Z,8.68
2022-11-09T06:20:00.000Z,8.68
2022-11-09T06:25:01.000Z,8.70
2022-11-09T06:30:00.000Z,8.75
2022-11-09T06:35:01.000Z,8.79
2022-11-09T06:40:01.000Z,8.82
2022-11-09T06:45:01.000Z,8.82
2022-11-09T06:50:00.000Z,8.87
2022-11-09T06:55:01.000Z,8.92
2022-11-09T07:00:01.000Z,8.95
2022-11-09T07:05:00.000Z,8.94
2022-11-09T07:10:00.000Z,8.93
2022-11-09T07:15:01.000Z,8.97
2022-11-09T07:20:01.000Z,9.02
2022-11-09T07:25:01.000Z,9.07
2022-11-09T07:30:01.000Z,9.14
2022-11-09T07:35:01.000Z,9.20
2022-11-09T07:40:01.000Z,9.21
2022-11-09T07:45:00.000Z,9.24
2022-11-09T07:50:00.000Z,9.24
2022-11-09T07:55:01.000Z,9.31
2022-11-09T08:00:01.000Z,9.31
2022-11-09T08:05:01.000Z,9.33
2022-11-09T08:10:01.000Z,9.36
2022-11-09T08:15:01.000Z,9.38
2022-11-09T08:20:01.000Z,9.36
2022-11-09T08:25:00.000Z,9.39
2022-11-09T08:30:00.000Z,9.37
2022-11-09T08:35:01.000Z,9.41
2022-11-09T08:40:01.000Z,9.41
2022-11-09T08:45:01.000Z,9.42
2022-11-09T08:50:01.000Z,9.48
2022-11-09T08:55:01.000Z,9.56
2022-11-09T09:00:01.000Z,9.66
2022-11-09T09:05:01.000Z,9.75
2022-11-09T09:10:01.000Z,9.82
2022-11-09T09:15:01.000Z,9.89
2022-11-09T09:20:01.000Z,9.95
2022-11-09T09:25:01.000Z,10.01
2022-11-09T09:30:01.000Z,10.07
2022-11-09T09:35:01.000Z,10.13
2022-11-09T09:40:01.000Z,10.18
2022-11-09T09:45:01.000Z,10.21
2022-11-09T09:50:01.000Z,10.26
2022-11-09T09:55:01.000Z,10.34
2022-11-09T10:00:01.000Z,10.39
2022-11-09T10:05:01.000Z,10.46
2022-11-09T10:10:01.000Z,10.54
2022-11-09T10:15:01.000Z,10.60
2022-11-09T10:20:01.000Z,10.63
2022-11-09T10:25:01.000Z,10.67
2022-11-09T10:30:01.000Z,10.77
2022-11-09T10:35:01.000Z,10.86
2022-11-09T10:40:01.000Z,10.94
2022-11-09T10:45:01.000Z,10.99
2022-11-09T10:50:01.000Z,11.09
2022-11-09T10:55:01.000Z,11.16
2022-11-09T11:00:01.000Z,11.19
2022-11-09T11:05:01.000Z,11.22
2022-11-09T11:10:01.000Z,11.24
2022-11-09T11:15:01.000Z,11.29
2022-11-09T11:20:01.000Z,11.29
2022-11-09T11:25:01.000Z,11.31
2022-11-09T11:30:01.000Z,11.33
2022-11-09T11:35:01.000Z,11.36
2022-11-09T11:40:01.000Z,11.40
2022-11-09T11:45:01.000Z,11.46
2022-11-09T11:50:01.000Z,11.55
2022-11-09T11:55:01.000Z,11.59
2022-11-09T12:00:01.000Z,11.64
2022-11-09T12:05:01.000Z,11.69
2022-11-09T12:10:01.000Z,11.70
2022-11-09T12:15:01.000Z,11.72
2022-11-09T12:20:01.000Z,11.70
2022-11-09T12:25:01.000Z,11.72
2022-11-09T12:30:01.000Z,11.77
2022-11-09T12:35:01.000Z,11.79
2022-11-09T12:40:01.000Z,11.82
2022-11-09T12:45:01.000Z,11.83
2022-11-09T12:50:01.000Z,11.84
2022-11-09T12:55:01.000Z,11.86
2022-11-09T13:00:01.000Z,11.90
2022-11-09T13:05:01.000Z,11.92
2022-11-09T13:10:01.000Z,11.95
2022-11-09T13:15:01.000Z,11.97
2022-11-09T13:20:01.000Z,11.96
2022-11-09T13:25:01.000Z,11.96
2022-11-09T13:30:01.000Z,11.96
2022-11-09T13:35:01.000Z,11.96
2022-11-09T13:40:01.000Z,11.93
2022-11-09T13:45:01.000Z,11.91
2022-11-09T13:50:01.000Z,11.88
2022-11-09T13:55:01.000Z,11.85
2022-11-09T14:00:01.000Z,11.84
2022-11-09T14:05:01.000Z,11.84
2022-11-09T14:10:01.000Z,11.84
2022-11-09T14:15:01.000Z,11.85
2022-11-09T14:20:01.000Z,11.83
2022-11-09T14:25:01.000Z,11.82
2022-11-09T14:30:01.000Z,11.78
2022-11-09T14:35:01.000Z,11.77
2022-11-09T14:40:01.000Z,11.75
2022-11-09T14:45:01.000Z,11.74
2022-11-09T14:50:01.000Z,11.72
2022-11-09T14:55:01.000Z,11.70
2022-11-09T15:00:01.000Z,11.69
2022-11-09T15:05:01.000Z,11.68
2022-11-09T15:10:01.000Z,11.64
2022-11-09T15:15:01.000Z,11.61
2022-11-09T15:20:01.000Z,11.60
2022-11-09T15:25:01.000Z,11.60
2022-11-09T15:30:01.000Z,11.59
2022-11-09T15:35:01.000Z,11.58
2022-11-09T15:40:01.000Z,11.56
2022-11-09T15:45:01.000Z,11.56
2022-11-09T15:50:01.000Z,11.58
2022-11-09T15:55:01.000Z,11.58
2022-11-09T16:00:01.000Z,11.58
2022-11-09T16:05:01.000Z,11.57
2022-11-09T16:10:01.000Z,11.56
2022-11-09T16:15:01.000Z,11.57
2022-11-09T16:20:01.000Z,11.55
2022-11-09T16:25:01.000Z,11.54
2022-11-09T16:30:01.000Z,11.52
2022-11-09T16:35:01.000Z,11.52
2022-11-09T16:40:01.000Z,11.51
2022-11-09T16:45:01.000Z,11.49
2022-11-09T16:50:01.000Z,11.49
2022-11-09T16:55:01.000Z,11.48
2022-11-09T17:00:01.000Z,11.48
2022-11-09T17:05:01.000Z,11.47
2022-11-09T17:10:01.000Z,11.47
2022-11-09T17:15:01.000Z,11.48
2022-11-09T17:20:01.000Z,11.48
2022-11-09T17:25:01.000Z,11.47
2022-11-09T17:30:01.000Z,11.48
2022-11-09T17:35:01.000Z,11.48
2022-11-09T17:40:01.000Z,11.48
2022-11-09T17:45:01.000Z,11.49
2022-11-09T17:50:01.000Z,11.51
2022-11-09T17:55:01.000Z,11.52
2022-11-09T18:00:01.000Z,11.51
2022-11-09T18:05:01.000Z,11.51
2022-11-09T18:10:01.000Z,11.51
2022-11-09T18:15:01.000Z,11.53
2022-11-09T18:20:01.000Z,11.51
2022-11-09T18:25:01.000Z,11.48
2022-11-09T18:30:01.000Z,11.45
2022-11-09T18:35:01.000Z,11.45
2022-11-09T18:40:01.000Z,11.46
2022-11-09T18:45:01.000Z,11.45
2022-11-09T18:50:01.000Z,11.44
2022-11-09T18:55:01.000Z,11.43
2022-11-09T19:00:01.000Z,11.44
2022-11-09T19:05:01.000Z,11.44
2022-11-09T19:10:01.000Z,11.44
2022-11-09T19:15:01.000Z,11.43
2022-11-09T19:20:01.000Z,11.42
2022-11-09T19:25:01.000Z,11.42
2022-11-09T19:30:01.000Z,11.40
2022-11-09T19:35:01.000Z,11.37
2022-11-09T19:40:01.000Z,11.33
2022-11-09T19:45:01.000Z,11.31
2022-11-09T19:50:01.000Z,11.30
2022-11-09T19:55:01.000Z,11.27
2022-11-09T20:00:01.000Z,11.24
2022-11-09T20:05:01.000Z,11.22
2022-11-09T20:10:01.000Z,11.21
2022-11-09T20:15:01.000Z,11.19
2022-11-09T20:20:01.000Z,11.18
2022-11-09T20:25:01.000Z,11.17
2022-11-09T20:30:01.000Z,11.15
2022-11-09T20:35:01.000Z,11.14
2022-11-09T20:40:01.000Z,11.13
2022-11-09T20:45:01.000Z,11.13
2022-11-09T20:50:01.000Z,11.12
2022-11-09T20:55:01.000Z,11.12
2022-11-09T21:00:01.000Z,11.12
2022-11-09T21:05:01.000Z,11.11
2022-11-09T21:10:01.000Z,11.11
2022-11-09T21:15:01.000Z,11.09
2022-11-09T21:20:01.000Z,11.10
2022-11-09T21:25:01.000Z,11.09
2022-11-09T21:30:01.000Z,11.09
2022-11-09T21:35:01.000Z,11.07
2022-11-09T21:40:01.000Z,11.05
2022-11-09T21:45:01.000Z,11.04
2022-11-09T21:50:01.000Z,11.03
2022-11-09T21:55:01.000Z,11.04
2022-11-09T22:00:01.000Z,11.04
2022-11-09T22:05:01.000Z,11.03
2022-11-09T22:10:01.000Z,11.01
2022-11-09T22:15:01.000Z,11.00
2022-11-09T22:20:01.000Z,10.99
2022-11-09T22:25:01.000Z,10.98
2022-11-09T22:30:01.000Z,10.98
2022-11-09T22:35:01.000Z,10.99
2022-11-09T22:40:01.000Z,11.00
2022-11-09T22:45:01.000Z,11.00
2022-11-09T22:50:01.000Z,11.01
2022-11-09T22:55:01.000Z,11.02
2022-11-09T23:00:01.000Z,11.02
2022-11-09T23:05:01.000Z,11.03
2022-11-09T23:10:01.000Z,11.03
2022-11-09T23:15:01.000Z,11.04
2022-11-09T23:20:01.000Z,11.04
2022-11-09T23:25:01.000Z,11.05
2022-11-09T23:30:01.000Z,11.05
2022-11-09T23:35:01.000Z,11.07
2022-11-09T23:40:01.000Z,11.08
2022-11-09T23:45:01.000Z,11.09
2022-11-09T23:50:01.000Z,11.09
2022-11-09T23:55:01.000Z,11.10
